createdAt,value
2018-03-18T00:02:33.344Z,26.00
2018-03-18T00:05:08.974Z,26.20
2018-03-18T00:07:43.770Z,26.00
2018-03-18T00:10:17.490Z,26.00
2018-03-18T00:12:51.528Z,26.10
2018-03-18T00:15:25.295Z,26.00
2018-03-18T00:17:59.868Z,26.00
2018-03-18T00:20:33.807Z,26.00
2018-03-18T00:23:08.690Z,26.10
2018-03-18T00:25:42.515Z,26.10
2018-03-18T00:28:17.136Z,26.20
2018-03-18T00:30:51.700Z,26.00
2018-03-18T00:33:27.315Z,25.60
2018-03-18T00:36:02.451Z,26.00
2018-03-18T00:38:36.560Z,26.00
2018-03-18T00:41:11.255Z,26.00
2018-03-18T00:43:45.094Z,26.00
2018-03-18T00:46:19.704Z,26.00
2018-03-18T00:48:53.810Z,26.00
2018-03-18T00:51:39.803Z,25.80
2018-03-18T00:54:13.879Z,25.90
2018-03-18T00:56:47.807Z,26.00
2018-03-18T00:59:21.916Z,26.00
2018-03-18T01:01:56.877Z,25.90
2018-03-18T01:04:31.622Z,26.30
2018-03-18T01:07:05.535Z,26.30
2018-03-18T01:09:39.608Z,26.20
2018-03-18T01:12:14.372Z,26.20
2018-03-18T01:14:48.487Z,26.20
2018-03-18T01:17:22.611Z,26.30
2018-03-18T01:19:57.285Z,26.40
2018-03-18T01:22:30.999Z,26.40
2018-03-18T01:25:05.660Z,26.20
2018-03-18T01:27:39.636Z,26.20
2018-03-18T01:30:13.560Z,26.20
2018-03-18T01:32:48.608Z,26.20
2018-03-18T01:35:22.773Z,26.40
2018-03-18T01:37:56.624Z,26.30
2018-03-18T01:40:30.468Z,26.20
2018-03-18T01:43:09.958Z,26.20
2018-03-18T01:45:43.787Z,26.20
2018-03-18T01:48:18.171Z,26.80
2018-03-18T01:50:52.273Z,26.60
2018-03-18T01:53:26.415Z,26.50
2018-03-18T01:56:01.020Z,26.30
2018-03-18T01:58:35.152Z,26.70
2018-03-18T02:01:10.006Z,26.10
2018-03-18T02:03:43.891Z,26.10
2018-03-18T02:06:18.248Z,26.10
2018-03-18T02:08:52.764Z,26.10
2018-03-18T02:11:26.741Z,26.00
2018-03-18T02:14:01.496Z,26.10
2018-03-18T02:16:35.659Z,26.10
2018-03-18T02:19:09.680Z,26.20
2018-03-18T02:21:43.841Z,26.10
2018-03-18T02:24:19.587Z,26.10
2018-03-18T02:26:54.622Z,26.20
2018-03-18T02:29:28.553Z,26.20
2018-03-18T02:32:02.799Z,26.10
2018-03-18T02:34:36.926Z,26.00
2018-03-18T02:37:13.736Z,26.10
2018-03-18T02:39:48.716Z,26.00
2018-03-18T02:42:22.882Z,26.00
2018-03-18T02:44:57.002Z,26.00
2018-03-18T02:47:31.123Z,26.00
2018-03-18T02:50:05.232Z,25.90
2018-03-18T02:52:39.655Z,26.00
2018-03-18T02:55:13.865Z,25.80
2018-03-18T02:57:48.832Z,25.70
2018-03-18T03:00:22.809Z,25.70
2018-03-18T03:02:56.745Z,25.90
2018-03-18T03:05:30.931Z,25.70
2018-03-18T03:08:05.030Z,25.70
2018-03-18T03:10:38.930Z,25.90
2018-03-18T03:13:13.583Z,25.80
2018-03-18T03:15:47.803Z,25.80
2018-03-18T03:18:21.916Z,25.90
2018-03-18T03:20:56.141Z,25.90
2018-03-18T03:23:30.036Z,26.00
2018-03-18T03:26:04.047Z,26.00
2018-03-18T03:28:38.054Z,26.10
2018-03-18T03:31:12.991Z,26.20
2018-03-18T03:33:48.787Z,26.20
2018-03-18T03:36:26.646Z,26.20
2018-03-18T03:39:01.097Z,26.10
2018-03-18T03:41:35.241Z,26.60
2018-03-18T03:44:09.492Z,26.20
2018-03-18T03:46:43.603Z,26.10
2018-03-18T03:49:17.715Z,26.40
2018-03-18T03:51:51.726Z,26.00
2018-03-18T03:54:25.954Z,26.10
2018-03-18T03:57:00.168Z,26.30
2018-03-18T03:59:34.042Z,26.20
2018-03-18T04:02:09.215Z,26.50
2018-03-18T04:04:43.513Z,26.50
2018-03-18T04:07:17.931Z,26.40
2018-03-18T04:09:52.041Z,26.40
2018-03-18T04:12:26.973Z,26.50
2018-03-18T04:15:02.212Z,26.40
2018-03-18T04:17:37.248Z,26.40
2018-03-18T04:20:11.900Z,26.60
2018-03-18T04:22:46.077Z,26.60
2018-03-18T04:25:20.437Z,26.70
2018-03-18T04:27:54.551Z,26.60
2018-03-18T04:30:29.061Z,26.70
2018-03-18T04:33:04.414Z,26.40
2018-03-18T04:35:38.686Z,26.40
2018-03-18T04:38:13.666Z,26.70
2018-03-18T04:40:47.627Z,26.70
2018-03-18T04:43:21.892Z,26.60
2018-03-18T04:45:56.210Z,26.50
2018-03-18T04:48:30.323Z,26.80
2018-03-18T04:51:04.337Z,26.70
2018-03-18T04:53:38.732Z,26.70
2018-03-18T04:56:13.079Z,26.70
2018-03-18T04:58:47.911Z,27.10
2018-03-18T05:01:21.905Z,26.70
2018-03-18T05:03:57.052Z,26.70
2018-03-18T05:06:31.064Z,26.70
2018-03-18T05:09:06.207Z,26.80
2018-03-18T05:11:40.961Z,26.80
2018-03-18T05:14:14.967Z,26.80
2018-03-18T05:16:49.466Z,26.80
2018-03-18T05:19:23.873Z,26.90
2018-03-18T05:21:58.002Z,26.90
2018-03-18T05:24:32.316Z,26.60
2018-03-18T05:27:06.641Z,26.80
2018-03-18T05:29:41.034Z,26.80
2018-03-18T05:32:15.483Z,26.80
2018-03-18T05:34:50.072Z,26.80
2018-03-18T05:37:24.385Z,26.80
2018-03-18T05:39:58.842Z,26.60
2018-03-18T05:42:33.476Z,26.90
2018-03-18T05:45:07.955Z,26.70
2018-03-18T05:47:42.409Z,26.70
2018-03-18T05:50:18.980Z,26.60
2018-03-18T05:52:53.300Z,26.60
2018-03-18T05:55:27.516Z,26.60
2018-03-18T05:58:01.807Z,26.60
2018-03-18T06:00:36.134Z,26.60
2018-03-18T06:03:10.048Z,26.60
2018-03-18T06:05:44.165Z,26.40
2018-03-18T06:08:18.902Z,26.50
2018-03-18T06:10:53.605Z,26.60
2018-03-18T06:13:27.949Z,26.60
2018-03-18T06:16:01.962Z,26.30
2018-03-18T06:18:36.175Z,26.60
2018-03-18T06:21:10.470Z,26.40
2018-03-18T06:23:44.710Z,26.50
2018-03-18T06:26:19.849Z,26.60
2018-03-18T06:28:53.858Z,26.50
2018-03-18T06:31:28.097Z,26.60
2018-03-18T06:34:01.946Z,26.50
2018-03-18T06:36:35.995Z,26.50
2018-03-18T06:39:10.832Z,26.60
2018-03-18T06:41:44.645Z,26.60
2018-03-18T06:44:19.678Z,26.40
2018-03-18T06:46:53.632Z,26.60
2018-03-18T06:49:27.744Z,26.50
2018-03-18T06:52:01.906Z,26.80
2018-03-18T06:54:36.622Z,26.70
2018-03-18T06:57:11.360Z,26.80
2018-03-18T06:59:45.477Z,26.70
2018-03-18T07:02:19.794Z,26.70
2018-03-18T07:04:53.664Z,26.70
2018-03-18T07:07:31.694Z,26.70
2018-03-18T07:10:07.390Z,26.30
2018-03-18T07:12:42.288Z,26.70
2018-03-18T07:15:16.229Z,26.70
2018-03-18T07:17:50.311Z,26.40
2018-03-18T07:20:24.488Z,26.40
2018-03-18T07:22:59.358Z,26.30
2018-03-18T07:25:34.790Z,26.30
2018-03-18T07:28:11.298Z,25.90
2018-03-18T07:30:45.770Z,26.50
2018-03-18T07:33:19.784Z,26.20
2018-03-18T07:35:54.001Z,26.20
2018-03-18T07:38:29.168Z,26.40
2018-03-18T07:41:03.392Z,26.40
2018-03-18T07:43:39.130Z,26.30
2018-03-18T07:46:13.411Z,26.30
2018-03-18T07:48:47.558Z,26.00
2018-03-18T07:51:24.643Z,25.90
2018-03-18T07:53:59.743Z,25.90
2018-03-18T07:56:34.319Z,25.80
2018-03-18T07:59:08.470Z,25.30
2018-03-18T08:01:42.732Z,24.90
2018-03-18T08:04:16.749Z,24.60
2018-03-18T08:06:50.936Z,24.40
2018-03-18T08:09:24.910Z,24.30
2018-03-18T08:12:00.140Z,23.60
2018-03-18T08:14:34.413Z,23.60
2018-03-18T08:17:08.291Z,23.30
2018-03-18T08:19:42.972Z,22.80
2018-03-18T08:22:17.055Z,22.80
2018-03-18T08:24:51.054Z,22.60
2018-03-18T08:27:25.311Z,22.70
2018-03-18T08:29:59.632Z,22.60
2018-03-18T08:32:34.491Z,22.90
2018-03-18T08:35:08.455Z,22.80
2018-03-18T08:37:42.454Z,23.10
2018-03-18T08:40:16.559Z,23.00
2018-03-18T08:42:50.459Z,23.00
2018-03-18T08:45:24.514Z,22.70
2018-03-18T08:47:58.724Z,22.40
2018-03-18T08:50:32.530Z,22.80
2018-03-18T08:53:06.465Z,22.60
2018-03-18T08:55:40.379Z,22.80
2018-03-18T08:58:15.235Z,22.70
2018-03-18T09:00:49.799Z,23.00
2018-03-18T09:03:24.485Z,23.00
2018-03-18T09:05:59.204Z,23.00
2018-03-18T09:08:38.597Z,23.00
2018-03-18T09:11:12.812Z,23.00
2018-03-18T09:13:46.557Z,23.30
2018-03-18T09:16:20.697Z,23.60
2018-03-18T09:18:54.641Z,23.40
2018-03-18T09:21:28.592Z,23.50
2018-03-18T09:24:02.460Z,23.20
2018-03-18T09:26:36.339Z,23.50
2018-03-18T09:29:10.259Z,23.50
2018-03-18T09:31:44.184Z,23.20
2018-03-18T09:34:18.299Z,23.00
2018-03-18T09:36:52.379Z,23.50
2018-03-18T09:39:27.240Z,23.30
2018-03-18T09:42:01.189Z,23.60
2018-03-18T09:44:36.032Z,23.40
2018-03-18T09:47:10.709Z,23.70
2018-03-18T09:49:44.448Z,23.70
2018-03-18T09:52:18.182Z,24.30
2018-03-18T09:54:52.128Z,24.60
2018-03-18T09:57:25.945Z,24.60
2018-03-18T09:59:59.821Z,24.50
2018-03-18T10:02:33.855Z,24.60
2018-03-18T10:05:07.837Z,24.40
2018-03-18T10:07:41.645Z,24.40
2018-03-18T10:10:15.449Z,24.20
2018-03-18T10:12:49.838Z,23.70
2018-03-18T10:15:23.804Z,23.00
2018-03-18T10:17:57.554Z,23.10
2018-03-18T10:20:31.504Z,23.10
2018-03-18T10:23:05.509Z,22.80
2018-03-18T10:25:39.656Z,22.50
2018-03-18T10:28:13.383Z,23.20
2018-03-18T10:30:47.274Z,22.30
2018-03-18T10:33:21.050Z,22.30
2018-03-18T10:35:55.869Z,21.60
2018-03-18T10:38:30.246Z,21.60
2018-03-18T10:41:04.031Z,21.00
2018-03-18T10:43:38.209Z,20.50
2018-03-18T10:46:12.120Z,20.80
2018-03-18T10:48:45.998Z,21.00
2018-03-18T10:51:19.822Z,20.70
2018-03-18T10:53:53.634Z,21.00
2018-03-18T10:56:27.437Z,20.60
2018-03-18T10:59:01.588Z,20.50
2018-03-18T11:01:41.410Z,20.20
2018-03-18T11:04:17.930Z,21.20
2018-03-18T11:06:52.449Z,21.60
2018-03-18T11:09:26.362Z,21.60
2018-03-18T11:12:00.189Z,21.50
2018-03-18T11:14:34.041Z,21.20
2018-03-18T11:17:07.755Z,20.90
2018-03-18T11:19:41.813Z,21.60
2018-03-18T11:22:15.669Z,21.70
2018-03-18T11:24:50.514Z,22.80
2018-03-18T11:27:25.302Z,22.80
2018-03-18T11:29:59.354Z,22.80
2018-03-18T11:32:33.395Z,23.00
2018-03-18T11:35:07.254Z,22.80
2018-03-18T11:37:41.000Z,23.20
2018-03-18T11:40:14.960Z,23.40
2018-03-18T11:42:48.750Z,23.50
2018-03-18T11:45:22.528Z,24.00
2018-03-18T11:47:56.606Z,23.90
2018-03-18T11:50:31.231Z,24.10
2018-03-18T11:53:05.118Z,24.10
2018-03-18T11:55:39.049Z,24.10
2018-03-18T11:58:13.003Z,24.30
2018-03-18T12:00:46.753Z,24.20
2018-03-18T12:03:20.776Z,24.20
2018-03-18T12:05:54.386Z,23.90
2018-03-18T12:08:40.033Z,23.90
2018-03-18T12:11:13.897Z,23.90
2018-03-18T12:13:48.325Z,24.60
2018-03-18T12:16:22.379Z,24.60
2018-03-18T12:18:57.071Z,24.80
2018-03-18T12:21:30.938Z,24.80
2018-03-18T12:24:04.883Z,24.80
2018-03-18T12:26:38.885Z,24.40
2018-03-18T12:29:12.660Z,24.50
2018-03-18T12:31:47.950Z,24.50
2018-03-18T12:34:21.919Z,23.80
2018-03-18T12:36:55.718Z,23.80
2018-03-18T12:39:41.334Z,23.90
2018-03-18T12:42:27.294Z,24.10
2018-03-18T12:45:01.277Z,23.90
2018-03-18T12:47:35.150Z,23.70
2018-03-18T12:50:08.972Z,23.50
2018-03-18T12:52:42.823Z,23.40
2018-03-18T12:55:16.640Z,23.50
2018-03-18T12:57:50.472Z,23.40
2018-03-18T13:00:24.466Z,23.40
2018-03-18T13:02:58.193Z,23.80
2018-03-18T13:05:32.733Z,23.80
2018-03-18T13:08:06.468Z,23.80
2018-03-18T13:10:41.039Z,23.70
2018-03-18T13:13:14.874Z,23.70
2018-03-18T13:15:48.722Z,25.40
2018-03-18T13:18:23.510Z,26.20
2018-03-18T13:20:57.307Z,26.20
2018-03-18T13:23:31.104Z,26.10
2018-03-18T13:26:04.972Z,25.80
2018-03-18T13:28:38.875Z,26.30
2018-03-18T13:31:12.729Z,26.60
2018-03-18T13:33:46.805Z,24.80
2018-03-18T13:36:21.574Z,25.80
2018-03-18T13:38:55.495Z,25.80
2018-03-18T13:41:29.757Z,21.20
2018-03-18T13:44:03.970Z,21.30
2018-03-18T13:46:38.070Z,20.60
2018-03-18T13:49:12.938Z,20.90
2018-03-18T13:51:47.029Z,20.80
2018-03-18T13:54:20.908Z,21.50
2018-03-18T13:56:55.767Z,22.30
2018-03-18T13:59:30.192Z,22.20
2018-03-18T14:02:04.098Z,21.10
2018-03-18T14:04:38.246Z,23.20
2018-03-18T14:07:13.350Z,25.00
2018-03-18T14:09:47.768Z,24.90
2018-03-18T14:12:21.990Z,25.50
2018-03-18T14:14:56.060Z,25.40
2018-03-18T14:17:30.623Z,25.50
2018-03-18T14:20:04.978Z,26.20
2018-03-18T14:22:39.462Z,26.40
2018-03-18T14:25:13.966Z,23.80
2018-03-18T14:27:48.923Z,23.80
2018-03-18T14:30:23.339Z,24.00
2018-03-18T14:32:57.761Z,25.10
2018-03-18T14:35:32.902Z,24.80
2018-03-18T14:38:08.137Z,24.30
2018-03-18T14:40:42.456Z,24.20
2018-03-18T14:43:16.673Z,25.20
2018-03-18T14:45:51.607Z,27.00
2018-03-18T14:48:25.398Z,27.00
2018-03-18T14:51:00.017Z,27.60
2018-03-18T14:53:33.606Z,27.50
2018-03-18T14:56:07.703Z,28.00
2018-03-18T14:58:41.790Z,25.00
2018-03-18T15:01:15.990Z,24.20
2018-03-18T15:03:50.196Z,23.60
2018-03-18T15:06:24.635Z,24.20
2018-03-18T15:08:59.119Z,24.20
2018-03-18T15:11:34.125Z,23.80
2018-03-18T15:14:08.218Z,23.80
2018-03-18T15:16:44.555Z,24.10
2018-03-18T15:19:19.657Z,23.20
2018-03-18T15:21:53.975Z,23.20
2018-03-18T15:24:29.043Z,22.20
2018-03-18T15:27:04.185Z,23.30
2018-03-18T15:29:38.506Z,23.30
2018-03-18T15:32:12.231Z,25.60
2018-03-18T15:34:45.992Z,26.60
2018-03-18T15:37:20.466Z,26.70
2018-03-18T15:39:54.970Z,27.20
2018-03-18T15:42:28.607Z,27.10
2018-03-18T15:45:02.319Z,27.50
2018-03-18T15:47:36.357Z,27.90
2018-03-18T15:50:10.085Z,27.80
2018-03-18T15:52:43.781Z,27.70
2018-03-18T15:55:18.920Z,28.20
2018-03-18T15:57:52.930Z,28.30
2018-03-18T16:00:26.938Z,27.80
2018-03-18T16:03:01.260Z,28.00
2018-03-18T16:05:36.191Z,28.60
2018-03-18T16:08:10.099Z,28.50
2018-03-18T16:10:44.216Z,28.30
2018-03-18T16:13:18.281Z,28.30
2018-03-18T16:15:52.754Z,28.40
2018-03-18T16:18:27.214Z,28.30
2018-03-18T16:21:01.226Z,28.30
2018-03-18T16:23:35.718Z,28.40
2018-03-18T16:26:09.390Z,28.20
2018-03-18T16:28:43.914Z,28.00
2018-03-18T16:31:17.826Z,28.00
2018-03-18T16:33:52.418Z,28.30
2018-03-18T16:36:26.507Z,28.20
2018-03-18T16:39:00.560Z,28.50
2018-03-18T16:41:35.091Z,28.20
2018-03-18T16:44:09.290Z,28.20
2018-03-18T16:46:43.855Z,28.30
2018-03-18T16:49:24.519Z,28.90
2018-03-18T16:52:00.782Z,28.60
2018-03-18T16:54:34.941Z,28.50
2018-03-18T16:57:10.241Z,28.90
2018-03-18T16:59:44.762Z,28.80
2018-03-18T17:02:19.256Z,28.60
2018-03-18T17:04:54.217Z,28.70
2018-03-18T17:07:28.210Z,28.70
2018-03-18T17:10:02.161Z,28.20
2018-03-18T17:12:35.923Z,27.90
2018-03-18T17:15:09.813Z,27.90
2018-03-18T17:17:43.470Z,28.20
2018-03-18T17:20:17.136Z,28.40
2018-03-18T17:22:51.266Z,28.40
2018-03-18T17:25:24.897Z,28.40
2018-03-18T17:27:59.203Z,28.60
2018-03-18T17:30:32.739Z,28.90
2018-03-18T17:33:06.523Z,28.70
2018-03-18T17:35:40.266Z,28.90
2018-03-18T17:38:13.938Z,29.20
2018-03-18T17:40:47.847Z,28.70
2018-03-18T17:43:22.184Z,29.40
2018-03-18T17:46:08.390Z,29.20
2018-03-18T17:48:53.951Z,29.20
2018-03-18T17:51:39.425Z,29.00
2018-03-18T17:54:25.108Z,28.80
2018-03-18T17:56:59.627Z,28.90
2018-03-18T17:59:34.154Z,29.40
2018-03-18T18:02:08.558Z,29.40
2018-03-18T18:04:42.302Z,29.40
2018-03-18T18:07:16.212Z,29.20
2018-03-18T18:09:50.714Z,29.50
2018-03-18T18:12:25.267Z,29.90
2018-03-18T18:14:58.938Z,29.80
2018-03-18T18:17:35.272Z,29.70
2018-03-18T18:20:11.219Z,26.90
2018-03-18T18:22:45.283Z,26.80
2018-03-18T18:25:19.385Z,24.60
2018-03-18T18:27:53.955Z,23.80
2018-03-18T18:30:27.830Z,23.70
2018-03-18T18:33:01.700Z,23.60
2018-03-18T18:35:35.706Z,23.50
2018-03-18T18:38:10.792Z,23.60
2018-03-18T18:40:45.675Z,23.20
2018-03-18T18:43:20.415Z,24.00
2018-03-18T18:45:55.307Z,23.90
2018-03-18T18:48:30.138Z,24.00
2018-03-18T18:51:04.174Z,24.00
2018-03-18T18:53:38.868Z,24.60
2018-03-18T18:56:13.728Z,24.10
2018-03-18T18:58:47.642Z,24.20
2018-03-18T19:01:21.759Z,24.40
2018-03-18T19:03:55.771Z,24.10
2018-03-18T19:06:29.963Z,24.50
2018-03-18T19:09:05.018Z,24.50
2018-03-18T19:11:39.238Z,24.50
2018-03-18T19:14:14.059Z,24.80
2018-03-18T19:16:47.989Z,24.70
2018-03-18T19:19:23.001Z,24.80
2018-03-18T19:21:56.955Z,24.80
2018-03-18T19:24:33.931Z,24.60
2018-03-18T19:27:08.551Z,24.80
2018-03-18T19:29:42.823Z,24.80
2018-03-18T19:32:18.009Z,25.10
2018-03-18T19:34:52.169Z,25.10
2018-03-18T19:37:26.195Z,25.10
2018-03-18T19:40:00.078Z,25.10
2018-03-18T19:42:34.129Z,25.00
2018-03-18T19:45:08.240Z,25.20
2018-03-18T19:47:42.279Z,25.20
2018-03-18T19:50:16.777Z,25.10
2018-03-18T19:52:50.687Z,25.00
2018-03-18T19:55:24.593Z,25.20
2018-03-18T19:57:58.401Z,25.20
2018-03-18T20:00:33.641Z,25.30
2018-03-18T20:03:07.656Z,25.30
2018-03-18T20:05:41.457Z,25.30
2018-03-18T20:08:15.306Z,25.40
2018-03-18T20:10:49.067Z,25.30
2018-03-18T20:13:22.905Z,25.30
2018-03-18T20:15:59.111Z,25.40
2018-03-18T20:18:33.044Z,24.90
2018-03-18T20:21:07.368Z,25.40
2018-03-18T20:23:42.448Z,25.00
2018-03-18T20:26:17.335Z,25.30
2018-03-18T20:28:51.422Z,25.30
2018-03-18T20:31:32.967Z,24.90
2018-03-18T20:34:07.477Z,25.20
2018-03-18T20:36:42.711Z,24.80
2018-03-18T20:39:17.637Z,24.80
2018-03-18T20:41:51.902Z,24.60
2018-03-18T20:44:27.829Z,24.60
2018-03-18T20:47:11.708Z,24.40
2018-03-18T20:49:56.102Z,24.30
2018-03-18T20:52:31.348Z,24.40
2018-03-18T20:55:06.548Z,24.30
2018-03-18T20:57:40.625Z,24.00
2018-03-18T21:00:18.539Z,24.10
2018-03-18T21:03:03.703Z,24.20
2018-03-18T21:05:42.446Z,24.10
2018-03-18T21:08:18.149Z,24.00
2018-03-18T21:19:58.954Z,23.60
2018-03-18T21:25:48.979Z,24.20
2018-03-18T21:28:27.461Z,24.40
2018-03-18T21:31:04.890Z,24.50
2018-03-18T21:33:40.117Z,24.80
2018-03-18T21:36:15.769Z,24.90
2018-03-18T21:38:50.451Z,24.60
2018-03-18T21:41:25.291Z,25.00
2018-03-18T21:44:07.948Z,25.30
2018-03-18T21:46:42.878Z,24.80
2018-03-18T21:49:17.508Z,24.70
2018-03-18T21:51:55.178Z,24.70
2018-03-18T21:54:30.452Z,24.80
2018-03-18T21:57:06.563Z,25.00
2018-03-18T21:59:41.343Z,25.00
2018-03-18T22:02:16.028Z,25.00
2018-03-18T22:04:50.794Z,25.30
2018-03-18T22:07:25.957Z,25.10
2018-03-18T22:10:09.786Z,25.30
2018-03-18T22:12:44.190Z,25.40
2018-03-18T22:15:19.078Z,25.50
2018-03-18T22:17:53.954Z,25.50
2018-03-18T22:20:29.970Z,25.50
2018-03-18T22:23:05.582Z,25.50
2018-03-18T22:25:40.644Z,25.50
2018-03-18T22:28:15.885Z,25.20
2018-03-18T22:30:51.489Z,25.50
2018-03-18T22:33:27.406Z,25.60
2018-03-18T22:36:03.495Z,25.50
2018-03-18T22:38:38.533Z,25.50
2018-03-18T22:41:14.710Z,25.40
2018-03-18T22:43:53.415Z,25.80
2018-03-18T22:46:28.384Z,25.10
2018-03-18T22:49:03.244Z,25.10
2018-03-18T22:51:38.089Z,25.00
2018-03-18T22:54:22.163Z,24.90
2018-03-18T22:56:57.240Z,24.90
2018-03-18T22:59:33.669Z,24.90
2018-03-18T23:02:10.472Z,24.80
2018-03-18T23:04:50.437Z,25.30
2018-03-18T23:07:25.933Z,25.30
2018-03-18T23:10:00.580Z,25.30
2018-03-18T23:12:36.117Z,25.50
2018-03-18T23:15:23.029Z,25.50
2018-03-18T23:17:58.364Z,25.60
2018-03-18T23:20:33.513Z,25.50
2018-03-18T23:23:08.604Z,25.60
2018-03-18T23:25:46.135Z,25.80
2018-03-18T23:28:22.708Z,25.80
2018-03-18T23:30:59.036Z,25.90
2018-03-18T23:33:34.822Z,25.80
2018-03-18T23:36:10.168Z,25.60
2018-03-18T23:38:45.800Z,26.00
2018-03-18T23:41:20.482Z,26.00
2018-03-18T23:43:56.023Z,26.10
2018-03-18T23:46:32.138Z,26.10
2018-03-18T23:49:07.273Z,26.20
2018-03-18T23:51:42.390Z,26.20
2018-03-18T23:54:17.749Z,26.30
2018-03-18T23:56:52.597Z,26.20
2018-03-18T23:59:27.493Z,26.20
